Hammond, Louisiana
Current Conditions -  °F | °C
As of 10:15 PM on Friday 19 Dec 2014 (Local Time) from K1L0 Reporting Station
Moderate Rain Moderate Rain  
Wind Chill: 52°   Ceiling: 500
Heat Index: 52°   Visibility: 5mi
Dew Point: 49°   Wind: 9mph
Humidity: 91%   Direction: 60°ENE
Pressure: 30.09"   Gusts: NA
Location:  30.5°N, 90.46°W
Report Text: K1L0 200415Z AUTO 06008KT 5SM RA OVC005 11/10 A3009 RMK AO2 P0001 T01110097
Loading
Personal Weather Stations






























Interactive Weather Map New forecast layout! Learn more

10-Day Weather Forecast

Advertisements
Track Severe Weather on mobile